Nova Crixas, Brazil
Current Conditions -  °F | °C
As of 5:00 AM on Sunday 26 Oct 2014 (Local Time) from SBAN Reporting Station
Broken Clouds Broken Clouds  
Wind Chill: 64°   Ceiling: 10000
Heat Index: 64°   Visibility: 6mi
Dew Point: 61°   Wind: 8mph
Humidity: 88%   Direction: 140°SE
Pressure: 30.03"   Gusts: NA
Location:  14.1°S, 50.33°W
Report Text: SBAN 260700Z 14007KT 9999 FEW020 BKN100 18/16 Q1017
Loading
Personal Weather Stations






























Interactive Weather Map
Tropical Storm Tracking
New forecast layout! Learn more

10-Day Weather Forecast

Advertisements
Track Severe Weather on mobile